Terminal Aerodrome Forecast
Issued by NWS

Home | Current Version | Previous Version | Text Only | Print | Product List | Glossary On
Versions: 1 2 3 4 5 6 7 8 9 10 11 12 13 14 15 16 17 18
000
FTUS43 KDVN 291100
TAFBRL
TAF
KBRL 291130Z 2912/3012 18011KT P6SM BKN080
     FM292300 19007KT P6SM VCTS BKN080CB
      TEMPO 2923/3003 3SM -TSRA BR BKN035CB
     FM300300 21007KT 3SM -TSRA BR OVC025CB
     FM300600 22005KT 4SM BR VCSH OVC015=

USA.gov is the U.S. government's official web portal to all federal, state and local government web resources and services.